Rotan, Texas
Current Conditions -  °F | °C
As of 1:15 PM on Friday 24 Oct 2014 (Local Time) from KSWW Reporting Station
Clear Clear  
Wind Chill: 80°   Ceiling: Unl
Heat Index: 81°   Visibility: 10mi
Dew Point: 57°   Wind: 12mph
Humidity: 45%   Direction: 200°SSW
Pressure: 30.19"   Gusts: NA
Location:  32.85°N, 100.47°W
Report Text: KSWW 241815Z AUTO 20010KT 10SM CLR 27/14 A3019 RMK AO2 T02690139
Loading
Personal Weather Stations






























Interactive Weather Map
Tropical Storm Tracking
New forecast layout! Learn more

10-Day Weather Forecast

Advertisements
Track Severe Weather on mobile